sensor_id;sensor_type;location;lat;lon;timestamp;P1;durP1;ratioP1;P2;durP2;ratioP2
12212;SDS011;6169;44.158;22.788;2023-04-06T00:00:48;14.53;;;8.57;;
12212;SDS011;6169;44.158;22.788;2023-04-06T00:05:52;12.97;;;8.53;;
12212;SDS011;6169;44.158;22.788;2023-04-06T00:10:55;12.20;;;8.83;;
12212;SDS011;6169;44.158;22.788;2023-04-06T00:15:58;9.90;;;8.00;;
12212;SDS011;6169;44.158;22.788;2023-04-06T00:21:01;13.77;;;8.73;;
12212;SDS011;6169;44.158;22.788;2023-04-06T00:26:04;13.77;;;8.70;;
12212;SDS011;6169;44.158;22.788;2023-04-06T00:31:06;13.90;;;9.10;;
12212;SDS011;6169;44.158;22.788;2023-04-06T00:36:10;18.97;;;9.57;;
12212;SDS011;6169;44.158;22.788;2023-04-06T00:41:12;14.33;;;8.50;;
12212;SDS011;6169;44.158;22.788;2023-04-06T00:46:15;10.00;;;8.10;;
12212;SDS011;6169;44.158;22.788;2023-04-06T00:51:19;15.30;;;8.93;;
12212;SDS011;6169;44.158;22.788;2023-04-06T00:56:21;12.37;;;8.13;;
12212;SDS011;6169;44.158;22.788;2023-04-06T01:01:24;11.77;;;8.60;;
12212;SDS011;6169;44.158;22.788;2023-04-06T01:06:28;15.30;;;9.43;;
12212;SDS011;6169;44.158;22.788;2023-04-06T01:11:30;12.93;;;8.93;;
12212;SDS011;6169;44.158;22.788;2023-04-06T01:16:32;17.47;;;9.73;;
12212;SDS011;6169;44.158;22.788;2023-04-06T01:21:36;18.67;;;8.13;;
12212;SDS011;6169;44.158;22.788;2023-04-06T01:26:41;14.63;;;9.10;;
12212;SDS011;6169;44.158;22.788;2023-04-06T01:31:44;14.87;;;9.50;;
12212;SDS011;6169;44.158;22.788;2023-04-06T01:36:47;12.87;;;9.23;;
12212;SDS011;6169;44.158;22.788;2023-04-06T01:41:50;14.50;;;9.07;;
12212;SDS011;6169;44.158;22.788;2023-04-06T01:46:53;13.00;;;9.40;;
12212;SDS011;6169;44.158;22.788;2023-04-06T01:51:55;12.87;;;8.60;;
12212;SDS011;6169;44.158;22.788;2023-04-06T01:56:59;13.77;;;9.57;;
12212;SDS011;6169;44.158;22.788;2023-04-06T02:02:01;15.63;;;8.63;;
12212;SDS011;6169;44.158;22.788;2023-04-06T02:07:03;12.00;;;7.47;;
12212;SDS011;6169;44.158;22.788;2023-04-06T02:12:07;11.47;;;8.80;;
12212;SDS011;6169;44.158;22.788;2023-04-06T02:17:10;19.00;;;9.57;;
12212;SDS011;6169;44.158;22.788;2023-04-06T02:22:12;14.93;;;8.80;;
12212;SDS011;6169;44.158;22.788;2023-04-06T02:27:16;11.40;;;8.67;;
12212;SDS011;6169;44.158;22.788;2023-04-06T02:32:18;18.07;;;8.90;;
12212;SDS011;6169;44.158;22.788;2023-04-06T02:37:20;13.23;;;8.87;;
12212;SDS011;6169;44.158;22.788;2023-04-06T02:42:27;14.63;;;9.30;;
12212;SDS011;6169;44.158;22.788;2023-04-06T02:47:29;15.10;;;9.57;;
12212;SDS011;6169;44.158;22.788;2023-04-06T02:52:31;16.03;;;9.37;;
12212;SDS011;6169;44.158;22.788;2023-04-06T02:57:35;18.17;;;10.20;;
12212;SDS011;6169;44.158;22.788;2023-04-06T03:02:37;16.47;;;11.00;;
12212;SDS011;6169;44.158;22.788;2023-04-06T03:07:40;15.57;;;10.10;;
12212;SDS011;6169;44.158;22.788;2023-04-06T03:12:44;16.10;;;10.97;;
12212;SDS011;6169;44.158;22.788;2023-04-06T03:17:46;20.30;;;11.23;;
12212;SDS011;6169;44.158;22.788;2023-04-06T03:22:48;17.60;;;10.83;;
12212;SDS011;6169;44.158;22.788;2023-04-06T03:27:52;20.40;;;12.37;;
12212;SDS011;6169;44.158;22.788;2023-04-06T03:32:54;19.47;;;11.73;;
12212;SDS011;6169;44.158;22.788;2023-04-06T03:37:57;19.87;;;11.13;;
12212;SDS011;6169;44.158;22.788;2023-04-06T03:43:00;16.40;;;11.90;;
12212;SDS011;6169;44.158;22.788;2023-04-06T03:48:03;16.20;;;11.57;;
12212;SDS011;6169;44.158;22.788;2023-04-06T03:53:05;17.33;;;11.33;;
12212;SDS011;6169;44.158;22.788;2023-04-06T03:58:10;17.27;;;12.33;;
12212;SDS011;6169;44.158;22.788;2023-04-06T04:03:12;14.37;;;11.20;;
12212;SDS011;6169;44.158;22.788;2023-04-06T04:08:15;15.80;;;11.73;;
12212;SDS011;6169;44.158;22.788;2023-04-06T04:13:18;17.63;;;10.87;;
12212;SDS011;6169;44.158;22.788;2023-04-06T04:18:21;20.00;;;12.57;;
12212;SDS011;6169;44.158;22.788;2023-04-06T04:23:23;16.00;;;10.83;;
12212;SDS011;6169;44.158;22.788;2023-04-06T04:28:27;15.83;;;9.60;;
12212;SDS011;6169;44.158;22.788;2023-04-06T04:33:29;16.93;;;11.53;;
12212;SDS011;6169;44.158;22.788;2023-04-06T04:38:31;17.80;;;11.90;;
12212;SDS011;6169;44.158;22.788;2023-04-06T04:43:35;18.60;;;11.23;;
12212;SDS011;6169;44.158;22.788;2023-04-06T04:48:37;19.13;;;13.00;;
12212;SDS011;6169;44.158;22.788;2023-04-06T04:53:39;17.20;;;12.10;;
12212;SDS011;6169;44.158;22.788;2023-04-06T04:58:43;16.93;;;12.67;;
12212;SDS011;6169;44.158;22.788;2023-04-06T05:03:45;21.53;;;12.53;;
12212;SDS011;6169;44.158;22.788;2023-04-06T05:08:47;18.33;;;11.03;;
12212;SDS011;6169;44.158;22.788;2023-04-06T05:13:51;20.20;;;12.23;;
12212;SDS011;6169;44.158;22.788;2023-04-06T05:18:53;15.03;;;11.63;;
12212;SDS011;6169;44.158;22.788;2023-04-06T05:23:57;18.10;;;11.93;;
12212;SDS011;6169;44.158;22.788;2023-04-06T05:29:00;17.07;;;10.73;;
12212;SDS011;6169;44.158;22.788;2023-04-06T05:34:03;15.00;;;9.73;;
12212;SDS011;6169;44.158;22.788;2023-04-06T05:39:05;17.90;;;12.00;;
12212;SDS011;6169;44.158;22.788;2023-04-06T05:44:09;19.30;;;11.50;;
12212;SDS011;6169;44.158;22.788;2023-04-06T05:49:11;18.70;;;10.77;;
12212;SDS011;6169;44.158;22.788;2023-04-06T05:54:14;18.00;;;11.03;;
12212;SDS011;6169;44.158;22.788;2023-04-06T05:59:17;15.10;;;9.60;;
12212;SDS011;6169;44.158;22.788;2023-04-06T06:04:21;15.47;;;10.43;;
12212;SDS011;6169;44.158;22.788;2023-04-06T06:09:23;14.97;;;10.00;;
12212;SDS011;6169;44.158;22.788;2023-04-06T06:14:27;14.53;;;9.43;;
12212;SDS011;6169;44.158;22.788;2023-04-06T06:19:29;13.53;;;8.07;;
12212;SDS011;6169;44.158;22.788;2023-04-06T06:24:32;13.37;;;8.40;;
12212;SDS011;6169;44.158;22.788;2023-04-06T06:29:36;12.67;;;7.83;;
12212;SDS011;6169;44.158;22.788;2023-04-06T06:34:38;12.00;;;7.13;;
12212;SDS011;6169;44.158;22.788;2023-04-06T06:39:41;11.67;;;7.17;;
12212;SDS011;6169;44.158;22.788;2023-04-06T06:44:44;10.43;;;7.87;;
12212;SDS011;6169;44.158;22.788;2023-04-06T06:49:47;11.83;;;8.67;;
12212;SDS011;6169;44.158;22.788;2023-04-06T06:54:49;9.33;;;7.23;;
12212;SDS011;6169;44.158;22.788;2023-04-06T06:59:53;12.13;;;8.43;;
12212;SDS011;6169;44.158;22.788;2023-04-06T07:04:55;12.97;;;7.70;;
12212;SDS011;6169;44.158;22.788;2023-04-06T07:09:57;9.30;;;5.90;;
12212;SDS011;6169;44.158;22.788;2023-04-06T07:15:01;14.10;;;6.93;;
12212;SDS011;6169;44.158;22.788;2023-04-06T07:20:04;14.70;;;8.73;;
12212;SDS011;6169;44.158;22.788;2023-04-06T07:25:08;10.13;;;6.10;;
12212;SDS011;6169;44.158;22.788;2023-04-06T07:30:12;14.95;;;5.88;;
12212;SDS011;6169;44.158;22.788;2023-04-06T07:35:15;10.05;;;6.25;;
12212;SDS011;6169;44.158;22.788;2023-04-06T07:40:17;10.85;;;6.38;;
12212;SDS011;6169;44.158;22.788;2023-04-06T07:45:21;12.55;;;7.13;;
12212;SDS011;6169;44.158;22.788;2023-04-06T07:50:23;10.38;;;5.47;;
12212;SDS011;6169;44.158;22.788;2023-04-06T07:55:26;12.13;;;6.68;;
12212;SDS011;6169;44.158;22.788;2023-04-06T08:00:29;9.98;;;6.32;;
12212;SDS011;6169;44.158;22.788;2023-04-06T08:05:31;10.20;;;7.53;;
12212;SDS011;6169;44.158;22.788;2023-04-06T08:10:34;10.45;;;5.65;;
12212;SDS011;6169;44.158;22.788;2023-04-06T08:15:37;9.45;;;7.05;;
12212;SDS011;6169;44.158;22.788;2023-04-06T08:20:40;9.88;;;6.43;;
12212;SDS011;6169;44.158;22.788;2023-04-06T08:25:42;7.43;;;4.70;;
12212;SDS011;6169;44.158;22.788;2023-04-06T08:30:46;6.68;;;4.28;;
12212;SDS011;6169;44.158;22.788;2023-04-06T08:35:48;7.20;;;5.63;;
12212;SDS011;6169;44.158;22.788;2023-04-06T08:40:51;9.70;;;4.82;;
12212;SDS011;6169;44.158;22.788;2023-04-06T08:45:55;8.18;;;5.03;;
12212;SDS011;6169;44.158;22.788;2023-04-06T08:50:59;7.15;;;4.05;;
12212;SDS011;6169;44.158;22.788;2023-04-06T08:56:02;8.77;;;4.75;;
12212;SDS011;6169;44.158;22.788;2023-04-06T09:01:07;7.63;;;4.97;;
12212;SDS011;6169;44.158;22.788;2023-04-06T09:06:10;10.57;;;5.88;;
12212;SDS011;6169;44.158;22.788;2023-04-06T09:11:14;15.35;;;6.43;;
12212;SDS011;6169;44.158;22.788;2023-04-06T09:16:18;7.60;;;5.13;;
12212;SDS011;6169;44.158;22.788;2023-04-06T09:21:21;7.72;;;6.22;;
12212;SDS011;6169;44.158;22.788;2023-04-06T09:26:23;14.38;;;6.63;;
12212;SDS011;6169;44.158;22.788;2023-04-06T09:31:28;8.02;;;5.63;;
12212;SDS011;6169;44.158;22.788;2023-04-06T09:36:33;7.30;;;5.97;;
12212;SDS011;6169;44.158;22.788;2023-04-06T09:41:38;9.48;;;5.07;;
12212;SDS011;6169;44.158;22.788;2023-04-06T09:46:42;10.43;;;6.47;;
12212;SDS011;6169;44.158;22.788;2023-04-06T09:51:46;8.20;;;4.43;;
12212;SDS011;6169;44.158;22.788;2023-04-06T09:56:50;6.25;;;4.15;;
12212;SDS011;6169;44.158;22.788;2023-04-06T10:02:00;20.52;;;6.80;;
12212;SDS011;6169;44.158;22.788;2023-04-06T10:07:06;5.53;;;4.50;;
12212;SDS011;6169;44.158;22.788;2023-04-06T10:12:09;7.53;;;6.05;;
12212;SDS011;6169;44.158;22.788;2023-04-06T10:17:13;5.25;;;4.40;;
12212;SDS011;6169;44.158;22.788;2023-04-06T10:22:18;7.32;;;4.75;;
12212;SDS011;6169;44.158;22.788;2023-04-06T10:27:29;9.90;;;5.55;;
12212;SDS011;6169;44.158;22.788;2023-04-06T10:32:33;8.05;;;4.18;;
12212;SDS011;6169;44.158;22.788;2023-04-06T10:37:47;7.00;;;4.78;;
12212;SDS011;6169;44.158;22.788;2023-04-06T10:42:52;9.88;;;4.68;;
12212;SDS011;6169;44.158;22.788;2023-04-06T10:47:56;5.93;;;3.17;;
12212;SDS011;6169;44.158;22.788;2023-04-06T10:52:58;10.20;;;5.68;;
12212;SDS011;6169;44.158;22.788;2023-04-06T10:58:01;7.97;;;3.75;;
12212;SDS011;6169;44.158;22.788;2023-04-06T11:03:05;7.45;;;4.72;;
12212;SDS011;6169;44.158;22.788;2023-04-06T11:08:07;28.00;;;5.05;;
12212;SDS011;6169;44.158;22.788;2023-04-06T11:13:09;9.00;;;3.75;;
12212;SDS011;6169;44.158;22.788;2023-04-06T11:18:16;14.15;;;5.00;;
12212;SDS011;6169;44.158;22.788;2023-04-06T11:23:22;14.38;;;4.18;;
12212;SDS011;6169;44.158;22.788;2023-04-06T11:28:25;4.40;;;3.65;;
12212;SDS011;6169;44.158;22.788;2023-04-06T11:33:29;13.38;;;3.35;;
12212;SDS011;6169;44.158;22.788;2023-04-06T11:38:38;32.70;;;7.20;;
12212;SDS011;6169;44.158;22.788;2023-04-06T11:43:45;5.45;;;3.22;;
12212;SDS011;6169;44.158;22.788;2023-04-06T11:48:50;10.63;;;3.78;;
12212;SDS011;6169;44.158;22.788;2023-04-06T11:53:53;5.93;;;2.83;;
12212;SDS011;6169;44.158;22.788;2023-04-06T11:58:56;7.25;;;3.03;;
12212;SDS011;6169;44.158;22.788;2023-04-06T12:04:01;8.45;;;2.20;;
12212;SDS011;6169;44.158;22.788;2023-04-06T12:09:03;4.75;;;2.80;;
12212;SDS011;6169;44.158;22.788;2023-04-06T12:14:06;4.00;;;2.45;;
12212;SDS011;6169;44.158;22.788;2023-04-06T12:19:09;4.32;;;2.47;;
12212;SDS011;6169;44.158;22.788;2023-04-06T12:24:12;5.60;;;3.20;;
12212;SDS011;6169;44.158;22.788;2023-04-06T12:29:14;3.53;;;2.70;;
12212;SDS011;6169;44.158;22.788;2023-04-06T12:34:18;4.60;;;2.50;;
12212;SDS011;6169;44.158;22.788;2023-04-06T12:39:20;5.63;;;3.28;;
12212;SDS011;6169;44.158;22.788;2023-04-06T12:44:23;4.63;;;3.00;;
12212;SDS011;6169;44.158;22.788;2023-04-06T12:49:27;3.83;;;2.58;;
12212;SDS011;6169;44.158;22.788;2023-04-06T12:54:29;3.17;;;2.78;;
12212;SDS011;6169;44.158;22.788;2023-04-06T12:59:32;8.90;;;2.95;;
12212;SDS011;6169;44.158;22.788;2023-04-06T13:04:37;4.68;;;2.63;;
12212;SDS011;6169;44.158;22.788;2023-04-06T13:09:39;5.00;;;3.25;;
12212;SDS011;6169;44.158;22.788;2023-04-06T13:14:41;11.50;;;3.70;;
12212;SDS011;6169;44.158;22.788;2023-04-06T13:19:45;4.30;;;3.28;;
12212;SDS011;6169;44.158;22.788;2023-04-06T13:24:47;5.32;;;3.88;;
12212;SDS011;6169;44.158;22.788;2023-04-06T13:29:49;6.47;;;3.42;;
12212;SDS011;6169;44.158;22.788;2023-04-06T13:34:55;4.95;;;2.63;;
12212;SDS011;6169;44.158;22.788;2023-04-06T13:39:57;15.18;;;4.82;;
12212;SDS011;6169;44.158;22.788;2023-04-06T13:45:00;6.18;;;3.33;;
12212;SDS011;6169;44.158;22.788;2023-04-06T13:50:04;4.68;;;3.70;;
12212;SDS011;6169;44.158;22.788;2023-04-06T13:55:08;7.82;;;3.58;;
12212;SDS011;6169;44.158;22.788;2023-04-06T14:00:11;7.63;;;3.45;;
12212;SDS011;6169;44.158;22.788;2023-04-06T14:05:16;4.80;;;3.35;;
12212;SDS011;6169;44.158;22.788;2023-04-06T14:10:19;4.43;;;2.90;;
12212;SDS011;6169;44.158;22.788;2023-04-06T14:15:23;5.35;;;4.03;;
12212;SDS011;6169;44.158;22.788;2023-04-06T14:20:27;7.13;;;3.58;;
12212;SDS011;6169;44.158;22.788;2023-04-06T14:25:30;14.05;;;5.18;;
12212;SDS011;6169;44.158;22.788;2023-04-06T14:30:34;8.73;;;4.57;;
12212;SDS011;6169;44.158;22.788;2023-04-06T14:35:39;5.60;;;4.43;;
12212;SDS011;6169;44.158;22.788;2023-04-06T14:40:41;3.45;;;2.55;;
12212;SDS011;6169;44.158;22.788;2023-04-06T14:45:43;35.97;;;15.63;;
12212;SDS011;6169;44.158;22.788;2023-04-06T14:50:53;8.02;;;4.13;;
12212;SDS011;6169;44.158;22.788;2023-04-06T14:55:56;9.13;;;3.60;;
12212;SDS011;6169;44.158;22.788;2023-04-06T15:00:59;6.05;;;3.65;;
12212;SDS011;6169;44.158;22.788;2023-04-06T15:06:04;4.65;;;3.28;;
12212;SDS011;6169;44.158;22.788;2023-04-06T15:11:07;7.82;;;3.78;;
12212;SDS011;6169;44.158;22.788;2023-04-06T15:16:09;6.53;;;3.60;;
12212;SDS011;6169;44.158;22.788;2023-04-06T15:21:13;4.63;;;3.40;;
12212;SDS011;6169;44.158;22.788;2023-04-06T15:26:15;5.10;;;3.30;;
12212;SDS011;6169;44.158;22.788;2023-04-06T15:31:19;4.60;;;4.15;;
12212;SDS011;6169;44.158;22.788;2023-04-06T15:36:24;4.25;;;3.72;;
12212;SDS011;6169;44.158;22.788;2023-04-06T15:41:28;10.48;;;6.15;;
12212;SDS011;6169;44.158;22.788;2023-04-06T15:46:31;15.45;;;6.78;;
12212;SDS011;6169;44.158;22.788;2023-04-06T15:51:35;41.72;;;21.48;;
12212;SDS011;6169;44.158;22.788;2023-04-06T15:56:37;14.75;;;7.88;;
12212;SDS011;6169;44.158;22.788;2023-04-06T16:01:39;8.25;;;4.72;;
12212;SDS011;6169;44.158;22.788;2023-04-06T16:06:44;13.05;;;9.93;;
12212;SDS011;6169;44.158;22.788;2023-04-06T16:11:46;14.20;;;9.05;;
12212;SDS011;6169;44.158;22.788;2023-04-06T16:16:48;17.33;;;9.00;;
12212;SDS011;6169;44.158;22.788;2023-04-06T16:21:52;7.50;;;4.90;;
12212;SDS011;6169;44.158;22.788;2023-04-06T16:26:54;9.27;;;6.30;;
12212;SDS011;6169;44.158;22.788;2023-04-06T16:31:58;8.83;;;4.93;;
12212;SDS011;6169;44.158;22.788;2023-04-06T16:37:02;10.80;;;7.47;;
12212;SDS011;6169;44.158;22.788;2023-04-06T16:42:04;11.27;;;7.00;;
12212;SDS011;6169;44.158;22.788;2023-04-06T16:47:07;11.67;;;7.23;;
12212;SDS011;6169;44.158;22.788;2023-04-06T16:52:10;13.30;;;8.10;;
12212;SDS011;6169;44.158;22.788;2023-04-06T16:57:13;14.17;;;8.67;;
12212;SDS011;6169;44.158;22.788;2023-04-06T17:02:16;40.17;;;25.63;;
12212;SDS011;6169;44.158;22.788;2023-04-06T17:07:20;48.67;;;27.87;;
12212;SDS011;6169;44.158;22.788;2023-04-06T17:12:25;23.83;;;16.63;;
12212;SDS011;6169;44.158;22.788;2023-04-06T17:17:28;12.60;;;8.00;;
12212;SDS011;6169;44.158;22.788;2023-04-06T17:22:32;12.87;;;9.73;;
12212;SDS011;6169;44.158;22.788;2023-04-06T17:27:34;21.30;;;13.60;;
12212;SDS011;6169;44.158;22.788;2023-04-06T17:32:37;14.70;;;9.37;;
12212;SDS011;6169;44.158;22.788;2023-04-06T17:37:42;13.90;;;8.03;;
12212;SDS011;6169;44.158;22.788;2023-04-06T17:42:45;15.93;;;11.30;;
12212;SDS011;6169;44.158;22.788;2023-04-06T17:47:48;17.30;;;9.93;;
12212;SDS011;6169;44.158;22.788;2023-04-06T17:52:52;22.77;;;12.97;;
12212;SDS011;6169;44.158;22.788;2023-04-06T17:57:55;21.63;;;10.23;;
12212;SDS011;6169;44.158;22.788;2023-04-06T18:02:59;22.70;;;11.00;;
12212;SDS011;6169;44.158;22.788;2023-04-06T18:08:04;17.47;;;9.13;;
12212;SDS011;6169;44.158;22.788;2023-04-06T18:13:07;18.23;;;9.47;;
12212;SDS011;6169;44.158;22.788;2023-04-06T18:18:11;17.70;;;9.97;;
12212;SDS011;6169;44.158;22.788;2023-04-06T18:23:17;14.13;;;8.37;;
12212;SDS011;6169;44.158;22.788;2023-04-06T18:28:20;13.63;;;8.50;;
12212;SDS011;6169;44.158;22.788;2023-04-06T18:33:23;12.83;;;8.07;;
12212;SDS011;6169;44.158;22.788;2023-04-06T18:38:28;14.43;;;7.40;;
12212;SDS011;6169;44.158;22.788;2023-04-06T18:43:30;16.10;;;8.03;;
12212;SDS011;6169;44.158;22.788;2023-04-06T18:48:33;10.23;;;7.73;;
12212;SDS011;6169;44.158;22.788;2023-04-06T18:53:37;9.03;;;6.50;;
12212;SDS011;6169;44.158;22.788;2023-04-06T18:58:40;14.43;;;8.30;;
12212;SDS011;6169;44.158;22.788;2023-04-06T19:03:44;9.70;;;6.80;;
12212;SDS011;6169;44.158;22.788;2023-04-06T19:08:49;14.87;;;8.80;;
12212;SDS011;6169;44.158;22.788;2023-04-06T19:13:52;16.60;;;8.83;;
12212;SDS011;6169;44.158;22.788;2023-04-06T19:18:54;15.43;;;9.13;;
12212;SDS011;6169;44.158;22.788;2023-04-06T19:24:00;12.40;;;8.13;;
12212;SDS011;6169;44.158;22.788;2023-04-06T19:29:04;10.33;;;8.30;;
12212;SDS011;6169;44.158;22.788;2023-04-06T19:34:07;27.30;;;17.13;;
12212;SDS011;6169;44.158;22.788;2023-04-06T19:39:11;18.23;;;8.97;;
12212;SDS011;6169;44.158;22.788;2023-04-06T19:44:16;15.73;;;8.57;;
12212;SDS011;6169;44.158;22.788;2023-04-06T19:49:18;11.97;;;7.90;;
12212;SDS011;6169;44.158;22.788;2023-04-06T19:54:22;16.73;;;9.97;;
12212;SDS011;6169;44.158;22.788;2023-04-06T19:59:24;12.47;;;9.00;;
12212;SDS011;6169;44.158;22.788;2023-04-06T20:04:26;15.63;;;7.90;;
12212;SDS011;6169;44.158;22.788;2023-04-06T20:09:30;13.60;;;8.87;;
12212;SDS011;6169;44.158;22.788;2023-04-06T20:14:32;13.43;;;8.50;;
12212;SDS011;6169;44.158;22.788;2023-04-06T20:19:35;13.83;;;8.97;;
12212;SDS011;6169;44.158;22.788;2023-04-06T20:24:40;13.03;;;8.77;;
12212;SDS011;6169;44.158;22.788;2023-04-06T20:29:42;12.97;;;8.33;;
12212;SDS011;6169;44.158;22.788;2023-04-06T20:34:44;12.47;;;8.47;;
12212;SDS011;6169;44.158;22.788;2023-04-06T20:39:48;12.23;;;8.27;;
12212;SDS011;6169;44.158;22.788;2023-04-06T20:44:51;10.50;;;7.27;;
12212;SDS011;6169;44.158;22.788;2023-04-06T20:49:54;10.43;;;7.77;;
12212;SDS011;6169;44.158;22.788;2023-04-06T20:54:57;12.10;;;7.87;;
12212;SDS011;6169;44.158;22.788;2023-04-06T21:00:00;13.73;;;8.87;;
12212;SDS011;6169;44.158;22.788;2023-04-06T21:05:03;13.57;;;8.67;;
12212;SDS011;6169;44.158;22.788;2023-04-06T21:10:07;14.67;;;8.33;;
12212;SDS011;6169;44.158;22.788;2023-04-06T21:15:10;13.03;;;8.87;;
12212;SDS011;6169;44.158;22.788;2023-04-06T21:20:12;16.37;;;9.77;;
12212;SDS011;6169;44.158;22.788;2023-04-06T21:25:16;17.70;;;10.60;;
12212;SDS011;6169;44.158;22.788;2023-04-06T21:30:18;21.77;;;11.37;;
12212;SDS011;6169;44.158;22.788;2023-04-06T21:35:20;23.73;;;17.00;;
12212;SDS011;6169;44.158;22.788;2023-04-06T21:40:24;26.93;;;17.67;;
12212;SDS011;6169;44.158;22.788;2023-04-06T21:45:26;27.40;;;14.30;;
12212;SDS011;6169;44.158;22.788;2023-04-06T21:50:28;20.50;;;13.13;;
12212;SDS011;6169;44.158;22.788;2023-04-06T21:55:32;12.57;;;9.63;;
12212;SDS011;6169;44.158;22.788;2023-04-06T22:00:34;13.53;;;9.40;;
12212;SDS011;6169;44.158;22.788;2023-04-06T22:05:36;10.77;;;8.47;;
12212;SDS011;6169;44.158;22.788;2023-04-06T22:10:40;18.47;;;10.00;;
12212;SDS011;6169;44.158;22.788;2023-04-06T22:15:42;14.43;;;9.60;;
12212;SDS011;6169;44.158;22.788;2023-04-06T22:20:44;14.10;;;8.93;;
12212;SDS011;6169;44.158;22.788;2023-04-06T22:25:48;9.60;;;7.10;;
12212;SDS011;6169;44.158;22.788;2023-04-06T22:30:51;17.93;;;11.03;;
12212;SDS011;6169;44.158;22.788;2023-04-06T22:35:53;18.33;;;11.07;;
12212;SDS011;6169;44.158;22.788;2023-04-06T22:40:57;25.77;;;12.80;;
12212;SDS011;6169;44.158;22.788;2023-04-06T22:45:59;20.70;;;12.60;;
12212;SDS011;6169;44.158;22.788;2023-04-06T22:51:01;17.50;;;11.60;;
12212;SDS011;6169;44.158;22.788;2023-04-06T22:56:04;21.90;;;12.27;;
12212;SDS011;6169;44.158;22.788;2023-04-06T23:01:07;16.07;;;10.70;;
12212;SDS011;6169;44.158;22.788;2023-04-06T23:06:09;25.67;;;14.07;;
12212;SDS011;6169;44.158;22.788;2023-04-06T23:11:12;18.43;;;11.70;;
12212;SDS011;6169;44.158;22.788;2023-04-06T23:16:15;15.67;;;10.20;;
12212;SDS011;6169;44.158;22.788;2023-04-06T23:21:17;18.07;;;11.83;;
12212;SDS011;6169;44.158;22.788;2023-04-06T23:26:20;15.97;;;10.67;;
12212;SDS011;6169;44.158;22.788;2023-04-06T23:31:23;17.50;;;10.67;;
12212;SDS011;6169;44.158;22.788;2023-04-06T23:36:25;19.37;;;9.70;;
12212;SDS011;6169;44.158;22.788;2023-04-06T23:41:29;18.13;;;11.80;;
12212;SDS011;6169;44.158;22.788;2023-04-06T23:46:31;15.53;;;11.17;;
12212;SDS011;6169;44.158;22.788;2023-04-06T23:51:33;20.70;;;12.57;;
12212;SDS011;6169;44.158;22.788;2023-04-06T23:56:37;28.53;;;15.57;;
